createdAt,value
2022-10-31T00:00:31.657Z,3.58
2022-10-31T00:03:00.996Z,2.80
2022-10-31T00:05:30.907Z,2.97
2022-10-31T00:08:05.552Z,3.65
2022-10-31T00:10:33.830Z,2.63
2022-10-31T00:13:02.011Z,3.33
2022-10-31T00:15:31.303Z,3.03
2022-10-31T00:18:07.180Z,2.88
2022-10-31T00:20:37.183Z,2.92
2022-10-31T00:23:07.021Z,4.13
2022-10-31T00:25:40.794Z,2.72
2022-10-31T00:28:12.182Z,3.15
2022-10-31T00:33:08.808Z,3.00
2022-10-31T00:35:38.020Z,3.30
2022-10-31T00:38:06.138Z,5.88
2022-10-31T00:40:35.085Z,3.03
2022-10-31T00:43:03.442Z,3.08
2022-10-31T00:45:33.821Z,3.33
2022-10-31T00:48:04.463Z,3.10
2022-10-31T00:50:34.554Z,3.90
2022-10-31T00:53:04.597Z,3.25
2022-10-31T00:55:33.551Z,2.80
2022-10-31T00:58:02.842Z,2.80
2022-10-31T01:00:34.472Z,2.10
2022-10-31T01:03:18.964Z,2.00
2022-10-31T01:05:48.093Z,2.67
2022-10-31T01:08:17.893Z,2.42
2022-10-31T01:10:45.917Z,2.70
2022-10-31T01:13:15.565Z,2.67
2022-10-31T01:15:57.161Z,4.93
2022-10-31T01:18:27.880Z,3.03
2022-10-31T01:21:16.558Z,3.45
2022-10-31T01:23:44.963Z,3.97
2022-10-31T01:26:30.944Z,3.60
2022-10-31T01:29:09.435Z,3.33
2022-10-31T01:31:41.582Z,2.70
2022-10-31T01:34:16.782Z,4.05
2022-10-31T01:36:52.133Z,2.33
2022-10-31T01:39:20.992Z,2.10
2022-10-31T01:41:52.640Z,6.47
2022-10-31T01:44:24.562Z,2.15
2022-10-31T01:47:06.146Z,2.10
2022-10-31T01:49:45.043Z,1.75
2022-10-31T01:52:48.253Z,1.88
2022-10-31T01:55:30.447Z,2.25
2022-10-31T01:58:06.097Z,2.28
2022-10-31T02:00:44.094Z,2.10
2022-10-31T03:57:04.846Z,4.82
2022-10-31T03:59:43.116Z,4.25
2022-10-31T04:02:23.691Z,4.72
2022-10-31T04:04:54.115Z,3.58
2022-10-31T04:07:28.309Z,3.83
2022-10-31T04:10:03.831Z,2.50
2022-10-31T04:12:36.081Z,3.60
2022-10-31T04:15:20.510Z,2.05
2022-10-31T04:17:51.715Z,1.85
2022-10-31T04:20:31.653Z,1.73
2022-10-31T04:23:02.084Z,1.77
2022-10-31T04:25:30.313Z,1.70
2022-10-31T04:28:00.939Z,1.67
2022-10-31T04:30:32.185Z,1.77
2022-10-31T04:33:02.364Z,1.98
2022-10-31T04:35:32.386Z,1.42
2022-10-31T04:38:00.622Z,2.15
2022-10-31T04:40:29.416Z,2.17
2022-10-31T04:43:34.954Z,3.20
2022-10-31T04:46:06.345Z,2.80
2022-10-31T04:48:39.470Z,3.78
2022-10-31T04:51:09.106Z,3.58
2022-10-31T04:53:37.622Z,3.83
2022-10-31T04:56:44.354Z,4.38
2022-10-31T04:59:21.453Z,4.60
2022-10-31T05:01:54.989Z,3.88
2022-10-31T05:04:35.824Z,2.70
2022-10-31T05:07:07.165Z,4.38
2022-10-31T05:09:35.799Z,5.00
2022-10-31T05:12:06.499Z,3.35
2022-10-31T05:15:13.654Z,9.18
2022-10-31T05:18:00.907Z,2.78
2022-10-31T05:21:01.656Z,34.58
2022-10-31T05:23:36.330Z,63.00
2022-10-31T05:26:07.168Z,42.90
2022-10-31T05:28:36.379Z,67.75
2022-10-31T05:31:07.363Z,79.85
2022-10-31T05:33:37.776Z,105.55
2022-10-31T05:36:12.550Z,34.03
2022-10-31T05:38:50.672Z,18.33
2022-10-31T05:41:27.187Z,21.35
2022-10-31T05:44:06.175Z,36.80
2022-10-31T05:46:42.637Z,41.50
2022-10-31T05:49:27.450Z,35.08
2022-10-31T05:52:14.799Z,21.60
2022-10-31T05:54:51.665Z,10.32
2022-10-31T05:57:19.910Z,4.50
2022-10-31T05:59:54.785Z,3.22
2022-10-31T06:02:24.552Z,2.78
2022-10-31T06:05:14.776Z,3.50
2022-10-31T06:10:13.287Z,6.68
2022-10-31T07:54:31.267Z,7.70
2022-10-31T07:57:00.074Z,7.88
2022-10-31T07:59:33.468Z,6.18
2022-10-31T08:02:05.395Z,6.68
2022-10-31T08:04:37.048Z,5.00
2022-10-31T08:07:26.368Z,7.80
2022-10-31T08:10:03.668Z,5.97
2022-10-31T08:12:33.721Z,6.00
2022-10-31T08:15:03.206Z,5.25
2022-10-31T08:17:37.514Z,5.55
2022-10-31T08:20:08.273Z,3.88
2022-10-31T08:22:54.598Z,6.50
2022-10-31T08:25:24.471Z,4.75
2022-10-31T08:27:57.139Z,8.52
2022-10-31T08:30:33.956Z,6.72
2022-10-31T08:33:39.143Z,6.07
2022-10-31T08:36:26.429Z,6.95
2022-10-31T08:39:01.788Z,4.10
2022-10-31T08:41:32.816Z,4.93
2022-10-31T08:44:04.670Z,4.73
2022-10-31T08:46:34.096Z,5.70
2022-10-31T08:49:03.588Z,4.50
2022-10-31T08:51:32.580Z,5.53
2022-10-31T08:54:01.322Z,5.88
2022-10-31T08:56:40.211Z,7.70
2022-10-31T08:59:27.640Z,4.27
2022-10-31T09:02:20.015Z,3.55
2022-10-31T09:04:56.508Z,3.35
2022-10-31T09:07:34.412Z,5.18
2022-10-31T09:10:03.176Z,7.70
2022-10-31T09:15:43.676Z,4.82
2022-10-31T09:18:32.984Z,4.75
2022-10-31T09:21:03.266Z,5.35
2022-10-31T09:23:33.502Z,4.15
2022-10-31T09:26:03.833Z,8.33
2022-10-31T09:28:39.110Z,8.02
2022-10-31T09:31:13.193Z,6.38
2022-10-31T09:33:56.995Z,6.55
2022-10-31T09:36:39.586Z,4.72
2022-10-31T09:39:21.309Z,6.38
2022-10-31T09:43:03.030Z,4.43
2022-10-31T09:45:52.009Z,7.57
2022-10-31T09:49:26.511Z,4.43
2022-10-31T09:52:39.611Z,7.75
2022-10-31T09:55:41.910Z,6.30
2022-10-31T09:58:34.184Z,6.25
2022-10-31T10:01:06.519Z,4.40
2022-10-31T10:03:42.736Z,6.45
2022-10-31T10:06:38.529Z,4.22
2022-10-31T10:09:29.467Z,4.45
2022-10-31T10:13:04.909Z,9.10
2022-10-31T10:15:56.179Z,4.38
2022-10-31T10:18:48.876Z,4.75
2022-10-31T10:21:46.006Z,6.03
2022-10-31T10:24:29.697Z,4.95
2022-10-31T10:27:07.855Z,8.05
2022-10-31T10:30:00.581Z,6.80
2022-10-31T10:32:46.564Z,5.57
2022-10-31T10:35:28.997Z,4.55
2022-10-31T10:38:20.488Z,8.73
2022-10-31T10:40:49.446Z,4.53
2022-10-31T10:43:24.175Z,6.03
2022-10-31T10:46:46.531Z,8.50
2022-10-31T10:49:47.608Z,5.82
2022-10-31T10:53:23.440Z,4.95
2022-10-31T10:56:07.827Z,5.43
2022-10-31T10:58:40.202Z,4.43
2022-10-31T11:03:45.944Z,5.05
2022-10-31T11:06:27.037Z,4.60
2022-10-31T11:08:57.649Z,4.22
2022-10-31T11:11:32.388Z,5.57
2022-10-31T11:14:15.587Z,8.38
2022-10-31T11:16:49.160Z,5.43
2022-10-31T11:19:18.556Z,3.60
2022-10-31T11:21:53.785Z,6.47
2022-10-31T11:24:32.435Z,9.90
2022-10-31T11:27:25.306Z,8.07
2022-10-31T11:29:59.691Z,15.57
2022-10-31T11:32:31.152Z,42.60
2022-10-31T11:35:03.537Z,18.73
2022-10-31T11:37:36.664Z,14.35
2022-10-31T11:40:08.450Z,7.90
2022-10-31T11:42:43.659Z,7.85
2022-10-31T11:49:55.753Z,4.85
2022-10-31T11:52:32.632Z,7.35
2022-10-31T12:38:19.712Z,6.55
2022-10-31T12:41:39.039Z,8.07
2022-10-31T12:44:33.263Z,8.13
2022-10-31T12:47:40.013Z,5.25
2022-10-31T12:50:36.387Z,8.00
2022-10-31T12:53:10.356Z,7.22
2022-10-31T12:56:22.594Z,6.30
2022-10-31T12:59:30.154Z,8.13
2022-10-31T13:02:37.921Z,8.05
2022-10-31T13:05:14.415Z,9.02
2022-10-31T13:07:46.538Z,6.97
2022-10-31T13:10:18.243Z,11.88
2022-10-31T13:12:53.360Z,11.73
2022-10-31T13:15:31.103Z,7.32
2022-10-31T13:18:08.550Z,8.65
2022-10-31T13:20:45.726Z,49.60
2022-10-31T13:23:51.895Z,23.40
2022-10-31T13:26:48.826Z,10.05
2022-10-31T13:29:31.622Z,10.32
2022-10-31T13:32:06.623Z,5.95
2022-10-31T13:35:01.038Z,7.45
2022-10-31T13:37:54.631Z,7.90
2022-10-31T13:40:40.648Z,6.63
2022-10-31T13:43:58.779Z,16.13
2022-10-31T13:46:39.577Z,8.43
2022-10-31T13:49:29.607Z,10.32
2022-10-31T13:52:28.052Z,8.35
2022-10-31T13:57:46.188Z,7.00
2022-10-31T14:00:27.975Z,5.68
2022-10-31T14:03:00.370Z,7.85
2022-10-31T14:05:38.525Z,5.13
2022-10-31T14:08:19.827Z,7.13
2022-10-31T14:10:57.508Z,9.93
2022-10-31T14:13:34.112Z,6.72
2022-10-31T14:16:18.102Z,7.38
2022-10-31T14:18:52.289Z,6.40
2022-10-31T14:21:31.476Z,13.10
2022-10-31T14:24:00.734Z,10.82
2022-10-31T14:26:35.757Z,5.85
2022-10-31T14:29:16.047Z,8.27
2022-10-31T14:31:53.211Z,7.20
2022-10-31T14:34:45.124Z,5.82
2022-10-31T14:38:35.373Z,6.50
2022-10-31T14:41:17.779Z,7.40
2022-10-31T14:44:01.183Z,5.45
2022-10-31T14:46:48.694Z,11.90
2022-10-31T14:49:45.977Z,5.50
2022-10-31T14:52:18.224Z,7.60
2022-10-31T14:54:54.822Z,6.07
2022-10-31T14:57:32.053Z,6.68
2022-10-31T15:00:18.160Z,8.18
2022-10-31T15:03:29.166Z,10.63
2022-10-31T15:06:22.647Z,5.70
2022-10-31T15:08:57.870Z,6.38
2022-10-31T15:11:28.812Z,5.82
2022-10-31T15:14:00.774Z,9.98
2022-10-31T15:16:36.353Z,6.32
2022-10-31T15:19:22.343Z,8.25
2022-10-31T15:21:55.580Z,5.93
2022-10-31T15:24:36.613Z,8.25
2022-10-31T15:27:06.212Z,8.20
2022-10-31T15:32:27.241Z,10.18
2022-10-31T15:34:57.915Z,6.50
2022-10-31T15:37:28.062Z,9.35
2022-10-31T15:39:56.637Z,9.13
2022-10-31T15:42:31.038Z,7.05
2022-10-31T15:45:12.370Z,6.72
2022-10-31T15:47:46.417Z,16.67
2022-10-31T15:50:42.376Z,10.77
2022-10-31T15:53:48.047Z,8.80
2022-10-31T15:56:27.265Z,9.40
2022-10-31T15:58:58.385Z,10.35
2022-10-31T16:01:35.374Z,7.53
2022-10-31T16:04:13.325Z,9.05
2022-10-31T16:06:41.438Z,8.00
2022-10-31T16:09:25.825Z,7.55
2022-10-31T16:11:54.164Z,8.45
2022-10-31T16:14:28.407Z,10.52
2022-10-31T16:17:00.233Z,7.47
2022-10-31T16:19:47.096Z,12.02
2022-10-31T16:22:25.596Z,7.70
2022-10-31T16:25:15.329Z,8.77
2022-10-31T16:27:54.487Z,10.30
2022-10-31T16:30:47.897Z,13.82
2022-10-31T16:33:25.084Z,11.05
2022-10-31T16:36:04.252Z,11.00
2022-10-31T16:38:38.282Z,9.07
2022-10-31T16:41:08.243Z,9.05
2022-10-31T16:43:36.824Z,9.73
2022-10-31T16:46:05.542Z,7.57
2022-10-31T16:48:36.582Z,9.70
2022-10-31T16:51:04.737Z,8.23
2022-10-31T16:53:32.773Z,8.52
2022-10-31T16:56:05.053Z,8.60
2022-10-31T16:58:35.939Z,10.27
2022-10-31T17:01:08.188Z,7.55
2022-10-31T17:03:36.948Z,11.38
2022-10-31T17:06:06.207Z,6.40
2022-10-31T17:08:34.254Z,5.68
2022-10-31T17:11:02.933Z,8.45
2022-10-31T17:13:34.735Z,10.75
2022-10-31T17:16:04.316Z,10.23
2022-10-31T17:18:33.523Z,10.45
2022-10-31T17:21:08.740Z,8.50
2022-10-31T17:23:38.499Z,7.07
2022-10-31T17:26:08.784Z,14.02
2022-10-31T17:28:38.057Z,10.73
2022-10-31T17:31:07.161Z,8.48
2022-10-31T17:33:35.965Z,9.68
2022-10-31T17:36:04.667Z,14.93
2022-10-31T17:38:32.636Z,16.70
2022-10-31T17:41:11.248Z,13.75
2022-10-31T17:43:42.651Z,8.77
2022-10-31T17:46:10.568Z,13.30
2022-10-31T17:48:39.332Z,12.70
2022-10-31T17:51:07.835Z,11.88
2022-10-31T17:53:37.149Z,10.18
2022-10-31T17:56:10.076Z,10.27
2022-10-31T17:58:39.234Z,10.77
2022-10-31T18:01:13.250Z,12.48
2022-10-31T18:03:42.332Z,13.35
2022-10-31T18:06:14.417Z,11.73
2022-10-31T18:08:43.313Z,9.50
2022-10-31T18:11:19.976Z,9.27
2022-10-31T18:13:48.148Z,8.07
2022-10-31T18:16:19.262Z,9.20
2022-10-31T18:18:56.403Z,11.05
2022-10-31T18:21:24.370Z,8.57
2022-10-31T18:23:58.384Z,7.75
2022-10-31T18:26:28.069Z,7.63
2022-10-31T18:28:56.113Z,8.95
2022-10-31T18:31:24.950Z,10.93
2022-10-31T18:33:55.408Z,9.55
2022-10-31T18:36:25.703Z,6.50
2022-10-31T18:38:53.927Z,10.30
2022-10-31T18:41:22.428Z,8.18
2022-10-31T18:43:50.709Z,8.45
2022-10-31T18:46:18.851Z,7.97
2022-10-31T18:48:47.217Z,9.52
2022-10-31T18:51:18.328Z,11.75
2022-10-31T18:53:58.987Z,17.92
2022-10-31T18:56:31.615Z,17.35
2022-10-31T18:59:03.048Z,14.43
2022-10-31T19:01:32.192Z,11.65
2022-10-31T19:04:00.739Z,9.90
2022-10-31T19:06:30.874Z,13.32
2022-10-31T19:09:26.724Z,11.50
2022-10-31T19:11:54.989Z,12.88
2022-10-31T19:14:23.272Z,9.70
2022-10-31T19:16:52.669Z,10.70
2022-10-31T19:19:21.005Z,12.05
2022-10-31T19:21:48.948Z,10.30
2022-10-31T19:24:18.512Z,10.48
2022-10-31T19:26:47.811Z,12.07
2022-10-31T19:29:16.599Z,12.93
2022-10-31T19:31:46.448Z,10.52
2022-10-31T19:34:17.749Z,12.38
2022-10-31T19:36:45.773Z,13.65
2022-10-31T19:39:14.118Z,12.38
2022-10-31T19:41:42.289Z,10.57
2022-10-31T19:44:13.264Z,12.57
2022-10-31T19:46:53.359Z,10.52
2022-10-31T19:49:24.307Z,10.00
2022-10-31T19:51:52.727Z,9.30
2022-10-31T19:54:20.734Z,8.43
2022-10-31T19:56:48.672Z,8.85
2022-10-31T19:59:19.938Z,13.18
2022-10-31T20:04:16.752Z,10.50
2022-10-31T20:06:45.059Z,7.90
2022-10-31T20:09:14.660Z,7.78
2022-10-31T20:11:45.599Z,8.30
2022-10-31T20:14:16.572Z,9.80
2022-10-31T20:16:45.906Z,9.23
2022-10-31T20:19:13.939Z,11.15
2022-10-31T20:21:42.225Z,10.77
2022-10-31T20:24:11.260Z,16.33
2022-10-31T20:26:41.130Z,15.40
2022-10-31T20:29:15.931Z,15.45
2022-10-31T20:31:45.894Z,14.50
2022-10-31T20:34:15.397Z,12.77
2022-10-31T20:36:43.392Z,10.07
2022-10-31T20:39:11.610Z,14.93
2022-10-31T20:41:39.660Z,12.35
2022-10-31T20:44:07.762Z,11.52
2022-10-31T20:46:35.910Z,12.68
2022-10-31T20:49:04.421Z,26.73
2022-10-31T20:51:32.926Z,19.40
2022-10-31T20:54:01.541Z,19.63
2022-10-31T20:56:30.018Z,12.68
2022-10-31T20:58:58.331Z,13.50
2022-10-31T21:01:30.405Z,15.65
2022-10-31T21:03:59.120Z,12.27
2022-10-31T21:06:28.429Z,11.65
2022-10-31T21:08:57.642Z,11.63
2022-10-31T21:11:28.415Z,11.15
2022-10-31T21:13:57.213Z,12.65
2022-10-31T21:16:31.350Z,10.98
2022-10-31T21:19:02.015Z,9.82
2022-10-31T21:21:37.074Z,10.60
2022-10-31T21:24:15.217Z,9.32
2022-10-31T21:26:50.566Z,9.25
2022-10-31T21:29:20.295Z,10.23
2022-10-31T21:31:51.226Z,9.13
2022-10-31T21:34:19.562Z,9.27
2022-10-31T21:36:47.756Z,8.50
2022-10-31T21:39:15.838Z,9.32
2022-10-31T21:41:44.595Z,10.25
2022-10-31T21:44:13.255Z,8.55
2022-10-31T21:46:41.543Z,8.00
2022-10-31T21:49:11.407Z,8.35
2022-10-31T21:51:40.882Z,12.43
2022-10-31T21:54:28.099Z,9.98
2022-10-31T21:56:58.133Z,9.45
2022-10-31T21:59:26.789Z,13.55
2022-10-31T22:01:57.161Z,7.60
2022-10-31T22:04:25.564Z,7.80
2022-10-31T22:06:54.380Z,11.85
2022-10-31T22:09:23.862Z,9.60
2022-10-31T22:11:52.314Z,16.73
2022-10-31T22:14:20.853Z,18.55
2022-10-31T22:16:49.024Z,13.00
2022-10-31T22:19:17.286Z,9.25
2022-10-31T22:21:49.223Z,8.43
2022-10-31T22:24:18.875Z,6.57
2022-10-31T22:26:47.217Z,6.57
2022-10-31T22:29:19.882Z,5.53
2022-10-31T22:31:57.263Z,5.63
2022-10-31T22:34:28.902Z,6.87
2022-10-31T22:36:57.212Z,6.18
2022-10-31T22:39:25.680Z,5.25
2022-10-31T22:41:55.117Z,5.78
2022-10-31T22:44:23.806Z,5.90
2022-10-31T22:46:51.756Z,9.52
2022-10-31T22:49:19.831Z,11.43
2022-10-31T22:51:52.246Z,10.02
2022-10-31T22:54:22.793Z,12.35
2022-10-31T22:56:51.132Z,11.05
2022-10-31T22:59:19.237Z,12.85
2022-10-31T23:01:47.565Z,11.73
2022-10-31T23:06:47.637Z,8.70
2022-10-31T23:09:17.056Z,9.30
2022-10-31T23:11:48.326Z,8.27
2022-10-31T23:14:21.157Z,8.90
2022-10-31T23:16:53.646Z,10.40
2022-10-31T23:19:30.510Z,7.05
2022-10-31T23:22:03.934Z,8.80
2022-10-31T23:24:37.831Z,7.55
2022-10-31T23:27:14.659Z,6.57
2022-10-31T23:29:46.937Z,7.68
2022-10-31T23:32:25.441Z,7.32
2022-10-31T23:35:03.616Z,7.65
2022-10-31T23:37:34.933Z,7.88
2022-10-31T23:40:04.520Z,8.38
2022-10-31T23:42:32.289Z,6.40
2022-10-31T23:45:00.151Z,6.38
2022-10-31T23:47:28.209Z,7.32
2022-10-31T23:49:59.078Z,8.38
2022-10-31T23:52:27.730Z,8.32
2022-10-31T23:54:55.705Z,6.82
2022-10-31T23:57:23.716Z,6.10
2022-10-31T23:59:52.005Z,6.43
